Time;durP1;ratioP1;P1;durP2;ratioP2;P2;SDS_P1;SDS_P2;PMS_P1;PMS_P2;Temp;Humidity;BMP_temperature;BMP_pressure;BME280_temperature;BME280_humidity;BME280_pressure;Samples;Min_cycle;Max_cycle;Signal;HPM_P1;HPM_P2
2021/12/17 00:02:42;;;;;;;10.77;7.07;;;;;;;;;;5019413;28;20049;-81
2021/12/17 00:04:37;;;;;;;11.45;7.18;;;;;;;;;;5019867;28;20037;-81
2021/12/17 00:07:07;;;;;;;11.82;7.30;;;;;;;;;;5021659;28;20056;-82
2021/12/17 00:09:33;;;;;;;11.60;7.82;;;;;;;;;;5032931;28;20029;-81
2021/12/17 00:11:59;;;;;;;10.40;7.18;;;;;;;;;;5039381;28;20100;-81
2021/12/17 00:14:35;;;;;;;11.48;7.25;;;;;;;;;;5027893;28;20415;-82
2021/12/17 00:17:04;;;;;;;12.07;7.55;;;;;;;;;;5018847;28;20022;-84
2021/12/17 00:49:22;;;;;;;13.02;8.10;;;;;;;;;;5054988;28;20022;-82
2021/12/17 00:52:01;;;;;;;12.75;8.32;;;;;;;;;;5041088;28;20033;-83
2021/12/17 00:54:33;;;;;;;12.30;8.02;;;;;;;;;;5030471;28;20472;-83
2021/12/17 00:57:01;;;;;;;12.80;7.70;;;;;;;;;;5031833;28;20026;-83
2021/12/17 00:59:28;;;;;;;13.40;8.65;;;;;;;;;;5037939;28;20051;-83
2021/12/17 01:01:56;;;;;;;14.20;8.13;;;;;;;;;;5007747;28;20411;-83
2021/12/17 01:04:22;;;;;;;13.05;8.18;;;;;;;;;;5029819;28;20093;-83
2021/12/17 01:06:48;;;;;;;14.02;8.60;;;;;;;;;;5022647;28;20030;-82
2021/12/17 01:09:16;;;;;;;14.68;8.68;;;;;;;;;;5018811;28;20036;-82
2021/12/17 01:11:43;;;;;;;13.80;8.85;;;;;;;;;;5018653;28;20547;-83
2021/12/17 01:14:09;;;;;;;14.02;9.65;;;;;;;;;;5025539;28;20025;-83
2021/12/17 01:16:35;;;;;;;14.95;8.57;;;;;;;;;;5020591;28;20058;-83
2021/12/17 01:24:30;;;;;;;11.98;7.75;;;;;;;;;;5028897;28;20253;-83
2021/12/17 01:35:30;;;;;;;13.35;8.63;;;;;;;;;;5045598;28;20040;-82
2021/12/17 01:41:45;;;;;;;11.60;8.13;;;;;;;;;;5045194;28;20117;-82
2021/12/17 01:43:26;;;;;;;13.68;8.75;;;;;;;;;;5030513;28;20034;-82
2021/12/17 01:45:54;;;;;;;14.75;9.27;;;;;;;;;;5027967;28;20120;-82
2021/12/17 01:48:27;;;;;;;14.35;8.70;;;;;;;;;;5027246;28;20033;-83
2021/12/17 02:01:43;;;;;;;13.65;8.50;;;;;;;;;;5036642;28;20094;-82
2021/12/17 02:04:10;;;;;;;14.70;9.25;;;;;;;;;;5028330;28;20022;-83
2021/12/17 02:06:38;;;;;;;14.38;9.25;;;;;;;;;;5028409;28;20052;-83
2021/12/17 02:20:38;;;;;;;16.30;9.57;;;;;;;;;;5018873;28;20064;-82
2021/12/17 02:28:42;;;;;;;13.57;8.45;;;;;;;;;;5036675;28;20025;-82
2021/12/17 02:29:01;;;;;;;13.93;8.23;;;;;;;;;;5002017;28;20443;-83
2021/12/17 02:31:32;;;;;;;14.93;9.05;;;;;;;;;;5034098;28;20022;-83
2021/12/17 02:34:01;;;;;;;15.30;9.93;;;;;;;;;;5030453;28;20025;-82
2021/12/17 02:36:29;;;;;;;15.93;9.13;;;;;;;;;;5027607;28;20051;-83
2021/12/17 02:47:18;;;;;;;12.30;7.70;;;;;;;;;;5035272;28;20048;-83
2021/12/17 02:49:45;;;;;;;13.57;9.02;;;;;;;;;;5016804;28;20026;-82
2021/12/17 02:52:12;;;;;;;13.80;9.18;;;;;;;;;;5016190;28;20026;-84
2021/12/17 02:54:38;;;;;;;15.23;9.20;;;;;;;;;;5016421;28;20070;-83
2021/12/17 02:57:05;;;;;;;14.65;9.80;;;;;;;;;;5030604;28;20518;-82
2021/12/17 02:59:35;;;;;;;16.48;8.82;;;;;;;;;;5031948;28;20056;-82
2021/12/17 03:02:02;;;;;;;13.70;9.43;;;;;;;;;;5014085;28;20046;-82
2021/12/17 03:04:30;;;;;;;12.27;7.72;;;;;;;;;;5023101;28;20021;-82
2021/12/17 03:06:56;;;;;;;14.23;9.63;;;;;;;;;;5029069;28;20018;-82
2021/12/17 03:09:36;;;;;;;15.68;9.38;;;;;;;;;;5036023;28;20065;-83
2021/12/17 03:12:08;;;;;;;15.48;9.25;;;;;;;;;;5016656;28;20614;-82
2021/12/17 03:14:41;;;;;;;14.90;9.05;;;;;;;;;;5018995;28;20666;-83
2021/12/17 03:17:10;;;;;;;14.30;9.27;;;;;;;;;;5024205;28;20399;-83
2021/12/17 03:25:09;;;;;;;15.77;9.55;;;;;;;;;;5033096;28;20056;-82
2021/12/17 03:27:35;;;;;;;16.63;9.57;;;;;;;;;;5026112;28;20034;-82
2021/12/17 03:30:01;;;;;;;13.38;8.80;;;;;;;;;;5016960;28;20077;-82
2021/12/17 03:32:27;;;;;;;15.70;9.80;;;;;;;;;;5022950;28;20502;-84
2021/12/17 03:34:53;;;;;;;14.38;9.57;;;;;;;;;;5030671;28;20038;-82
2021/12/17 03:37:19;;;;;;;16.25;9.75;;;;;;;;;;5028122;28;20072;-83
2021/12/17 03:39:45;;;;;;;16.80;9.75;;;;;;;;;;5016031;28;20472;-82
2021/12/17 03:42:11;;;;;;;16.33;9.68;;;;;;;;;;5014304;28;20026;-83
2021/12/17 03:44:37;;;;;;;15.05;10.18;;;;;;;;;;5020318;28;20476;-83
2021/12/17 03:47:04;;;;;;;15.77;10.05;;;;;;;;;;5021831;28;20029;-82
2021/12/17 03:49:33;;;;;;;16.98;10.27;;;;;;;;;;5019682;28;20026;-83
2021/12/17 03:52:05;;;;;;;16.45;9.90;;;;;;;;;;5021521;28;20026;-83
2021/12/17 03:54:35;;;;;;;16.63;10.68;;;;;;;;;;5024148;28;20026;-82
2021/12/17 03:57:01;;;;;;;17.27;10.43;;;;;;;;;;5015712;28;20030;-83
2021/12/17 03:59:27;;;;;;;20.00;11.48;;;;;;;;;;5030391;28;20017;-83
2021/12/17 04:01:53;;;;;;;18.27;11.40;;;;;;;;;;5022318;28;20191;-82
2021/12/17 04:04:19;;;;;;;17.77;11.23;;;;;;;;;;5020448;28;20105;-82
2021/12/17 04:06:45;;;;;;;18.55;11.00;;;;;;;;;;5014371;28;20046;-83
2021/12/17 04:09:12;;;;;;;19.08;10.98;;;;;;;;;;5028801;28;20116;-83
2021/12/17 04:11:38;;;;;;;20.98;13.48;;;;;;;;;;5034318;28;20018;-83
2021/12/17 04:14:04;;;;;;;18.33;11.07;;;;;;;;;;5017874;28;20030;-83
2021/12/17 04:16:33;;;;;;;19.30;10.85;;;;;;;;;;5030261;28;20025;-82
2021/12/17 04:18:59;;;;;;;17.92;11.55;;;;;;;;;;5031610;28;20036;-82
2021/12/17 04:21:26;;;;;;;18.13;11.38;;;;;;;;;;5000847;28;20116;-82
2021/12/17 04:23:56;;;;;;;18.77;11.15;;;;;;;;;;5019458;28;20030;-82
2021/12/17 04:26:23;;;;;;;18.13;10.65;;;;;;;;;;5025594;28;20026;-84
2021/12/17 04:28:51;;;;;;;19.27;12.00;;;;;;;;;;5026593;28;20103;-82
2021/12/17 04:31:19;;;;;;;19.35;12.32;;;;;;;;;;5022464;28;20021;-82
2021/12/17 04:33:45;;;;;;;20.42;11.27;;;;;;;;;;5023397;28;20033;-83
2021/12/17 04:36:14;;;;;;;19.00;11.60;;;;;;;;;;5028230;28;20018;-82
2021/12/17 04:38:40;;;;;;;17.98;11.00;;;;;;;;;;5023588;28;20018;-83
2021/12/17 04:41:54;;;;;;;17.70;11.25;;;;;;;;;;5025883;28;20391;-82
2021/12/17 04:57:44;;;;;;;15.55;9.45;;;;;;;;;;5014861;28;20423;-82
2021/12/17 05:00:13;;;;;;;15.38;9.00;;;;;;;;;;5016007;28;20040;-82
2021/12/17 05:02:46;;;;;;;15.50;9.07;;;;;;;;;;5015335;28;20050;-82
2021/12/17 05:05:13;;;;;;;16.13;9.00;;;;;;;;;;5017470;28;20075;-82
2021/12/17 05:07:43;;;;;;;15.48;9.77;;;;;;;;;;5016937;28;20088;-82
2021/12/17 05:18:26;;;;;;;15.52;9.38;;;;;;;;;;5019186;28;20173;-82
2021/12/17 05:20:59;;;;;;;16.10;9.90;;;;;;;;;;5012857;28;20553;-81
2021/12/17 05:23:30;;;;;;;15.60;9.38;;;;;;;;;;5016709;28;20030;-82
2021/12/17 05:25:56;;;;;;;17.52;10.20;;;;;;;;;;5016159;28;20026;-82
2021/12/17 05:28:22;;;;;;;14.55;8.95;;;;;;;;;;5015775;28;20484;-82
2021/12/17 05:30:49;;;;;;;16.67;10.00;;;;;;;;;;5017413;28;20574;-82
2021/12/17 05:33:16;;;;;;;16.75;9.35;;;;;;;;;;5015527;28;20022;-82
2021/12/17 05:35:42;;;;;;;16.25;10.23;;;;;;;;;;5016242;28;20030;-82
2021/12/17 05:38:08;;;;;;;18.20;10.98;;;;;;;;;;5015311;28;20018;-81
2021/12/17 05:40:34;;;;;;;18.27;10.52;;;;;;;;;;5015435;28;20072;-83
2021/12/17 05:43:02;;;;;;;16.58;9.32;;;;;;;;;;5016023;28;20026;-82
2021/12/17 05:45:34;;;;;;;18.52;10.82;;;;;;;;;;5015521;28;20026;-82
2021/12/17 05:48:04;;;;;;;16.77;10.80;;;;;;;;;;5015148;28;20033;-82
2021/12/17 05:50:31;;;;;;;16.50;9.77;;;;;;;;;;5033030;28;20028;-82
2021/12/17 05:52:57;;;;;;;17.40;10.15;;;;;;;;;;5014662;28;20066;-83
2021/12/17 05:55:23;;;;;;;18.55;10.88;;;;;;;;;;5015414;28;20041;-82
2021/12/17 05:57:49;;;;;;;16.90;10.07;;;;;;;;;;5006216;28;20034;-82
2021/12/17 06:00:16;;;;;;;17.00;10.02;;;;;;;;;;5015022;28;20022;-82
2021/12/17 06:02:42;;;;;;;15.70;9.77;;;;;;;;;;5016650;28;20058;-82
2021/12/17 06:05:08;;;;;;;16.08;9.32;;;;;;;;;;5013421;28;20494;-82
2021/12/17 06:07:34;;;;;;;16.35;10.35;;;;;;;;;;5015382;28;20022;-82
2021/12/17 06:10:03;;;;;;;16.13;9.75;;;;;;;;;;5007575;28;20472;-82
2021/12/17 06:12:29;;;;;;;15.98;9.90;;;;;;;;;;5017261;28;20052;-82
2021/12/17 06:14:55;;;;;;;15.90;9.25;;;;;;;;;;5016978;28;20022;-82
2021/12/17 06:17:21;;;;;;;14.63;8.23;;;;;;;;;;5015655;28;20025;-82
2021/12/17 06:19:47;;;;;;;15.20;8.82;;;;;;;;;;5016158;28;20120;-82
2021/12/17 06:22:15;;;;;;;15.30;9.60;;;;;;;;;;5016861;28;20037;-82
2021/12/17 06:24:44;;;;;;;15.10;9.25;;;;;;;;;;5014087;28;20483;-83
2021/12/17 06:27:10;;;;;;;15.70;8.57;;;;;;;;;;4998945;28;20055;-82
2021/12/17 06:29:36;;;;;;;14.05;8.60;;;;;;;;;;5026187;28;20093;-82
2021/12/17 06:32:02;;;;;;;14.13;8.57;;;;;;;;;;5014817;28;20088;-83
2021/12/17 06:34:28;;;;;;;14.73;8.88;;;;;;;;;;5014274;28;20425;-82
2021/12/17 06:36:54;;;;;;;14.80;8.65;;;;;;;;;;5015169;28;20026;-81
2021/12/17 06:39:20;;;;;;;12.98;8.70;;;;;;;;;;5014377;28;20490;-81
2021/12/17 06:41:46;;;;;;;13.85;8.50;;;;;;;;;;5014085;28;20033;-81
2021/12/17 06:44:15;;;;;;;13.02;7.88;;;;;;;;;;5019244;28;20037;-81
2021/12/17 07:10:42;;;;;;;13.55;7.72;;;;;;;;;;5016603;28;20034;-80
2021/12/17 07:24:15;;;;;;;12.20;6.95;;;;;;;;;;5016152;28;20377;-82
2021/12/17 07:39:35;;;;;;;12.10;6.85;;;;;;;;;;5025876;28;20411;-83
2021/12/17 07:42:02;;;;;;;15.65;7.90;;;;;;;;;;5014440;28;20046;-83
2021/12/17 07:44:28;;;;;;;12.50;7.32;;;;;;;;;;5015354;28;20396;-83
2021/12/17 07:46:54;;;;;;;13.30;7.13;;;;;;;;;;5019096;28;20083;-82
2021/12/17 07:49:20;;;;;;;13.90;7.60;;;;;;;;;;5034684;28;20022;-81
2021/12/17 07:51:46;;;;;;;11.68;7.10;;;;;;;;;;5033579;28;20075;-83
2021/12/17 07:54:12;;;;;;;12.95;7.68;;;;;;;;;;5023569;28;20377;-82
2021/12/17 07:56:39;;;;;;;12.05;6.70;;;;;;;;;;5032645;28;20036;-81
2021/12/17 07:59:06;;;;;;;11.18;6.65;;;;;;;;;;5034698;28;20101;-80
2021/12/17 08:01:32;;;;;;;13.13;7.50;;;;;;;;;;5035626;28;20038;-81
2021/12/17 08:03:58;;;;;;;11.60;7.28;;;;;;;;;;5037492;28;20025;-81
2021/12/17 08:06:24;;;;;;;12.95;7.63;;;;;;;;;;5020801;28;20523;-80
2021/12/17 08:08:51;;;;;;;13.15;7.07;;;;;;;;;;5018491;28;20052;-79
2021/12/17 08:11:18;;;;;;;12.25;7.63;;;;;;;;;;5019940;28;20024;-82
2021/12/17 08:13:45;;;;;;;12.63;7.05;;;;;;;;;;5023832;28;20037;-79
2021/12/17 08:31:58;;;;;;;10.15;6.28;;;;;;;;;;5019341;28;20034;-80
2021/12/17 08:34:25;;;;;;;11.90;6.00;;;;;;;;;;5019634;28;20033;-80
2021/12/17 08:36:51;;;;;;;11.77;6.30;;;;;;;;;;5037091;28;20533;-82
2021/12/17 08:39:17;;;;;;;12.68;6.07;;;;;;;;;;5037708;28;20030;-80
2021/12/17 08:41:43;;;;;;;11.10;6.25;;;;;;;;;;5037419;28;20032;-81
2021/12/17 08:44:09;;;;;;;10.40;6.15;;;;;;;;;;5037499;28;20025;-80
2021/12/17 08:46:36;;;;;;;12.05;6.30;;;;;;;;;;5037154;28;20029;-80
2021/12/17 08:49:04;;;;;;;9.60;5.45;;;;;;;;;;5030599;28;20036;-81
2021/12/17 08:51:31;;;;;;;10.25;5.68;;;;;;;;;;5001455;28;20488;-81
2021/12/17 08:53:57;;;;;;;11.30;5.55;;;;;;;;;;5017205;28;20034;-80
2021/12/17 08:56:24;;;;;;;10.15;6.03;;;;;;;;;;5035327;28;20025;-81
2021/12/17 08:58:52;;;;;;;10.40;5.32;;;;;;;;;;5038811;28;20018;-80
2021/12/17 09:01:18;;;;;;;10.32;5.88;;;;;;;;;;5026923;28;20048;-79
2021/12/17 09:03:45;;;;;;;9.07;5.50;;;;;;;;;;5023698;28;20391;-81
2021/12/17 09:06:11;;;;;;;10.82;6.32;;;;;;;;;;5026908;28;20032;-80
2021/12/17 09:08:37;;;;;;;9.73;6.20;;;;;;;;;;5018673;28;20033;-82
2021/12/17 09:11:03;;;;;;;11.80;6.38;;;;;;;;;;5017202;28;20251;-80
2021/12/17 09:13:29;;;;;;;10.70;5.70;;;;;;;;;;5020055;28;20083;-80
2021/12/17 09:15:56;;;;;;;12.27;6.45;;;;;;;;;;5035813;28;20029;-80
2021/12/17 09:18:22;;;;;;;13.05;7.25;;;;;;;;;;5037323;28;20453;-80
2021/12/17 09:20:48;;;;;;;10.63;5.47;;;;;;;;;;5036696;28;20022;-79
2021/12/17 09:23:14;;;;;;;11.50;6.80;;;;;;;;;;5037675;28;20021;-81
2021/12/17 09:25:40;;;;;;;10.85;6.03;;;;;;;;;;5037017;28;20084;-80
2021/12/17 09:28:06;;;;;;;13.90;6.72;;;;;;;;;;5020211;28;20029;-80
2021/12/17 09:30:32;;;;;;;11.35;6.90;;;;;;;;;;5022916;28;20092;-80
2021/12/17 09:32:58;;;;;;;14.68;6.40;;;;;;;;;;5018377;28;20030;-80
2021/12/17 09:35:24;;;;;;;11.05;6.60;;;;;;;;;;5035843;28;20031;-80
2021/12/17 09:37:51;;;;;;;10.85;6.60;;;;;;;;;;5037746;28;20014;-81
2021/12/17 09:40:17;;;;;;;10.73;6.82;;;;;;;;;;5038122;28;20460;-80
2021/12/17 09:42:45;;;;;;;11.85;6.82;;;;;;;;;;5036420;28;20518;-80
2021/12/17 09:45:11;;;;;;;11.35;6.78;;;;;;;;;;5026212;28;20030;-80
2021/12/17 09:47:37;;;;;;;11.65;6.30;;;;;;;;;;5034391;28;20038;-80
2021/12/17 09:50:04;;;;;;;11.63;6.88;;;;;;;;;;5016611;28;20026;-80
2021/12/17 09:52:30;;;;;;;13.02;7.38;;;;;;;;;;5024593;28;20034;-80
2021/12/17 09:54:57;;;;;;;12.20;7.00;;;;;;;;;;5024719;28;20080;-81
2021/12/17 09:57:25;;;;;;;11.38;7.15;;;;;;;;;;5016728;28;20100;-81
2021/12/17 09:59:51;;;;;;;12.68;6.70;;;;;;;;;;4996956;28;20092;-81
2021/12/17 10:02:17;;;;;;;10.88;6.80;;;;;;;;;;5010273;28;20264;-81
2021/12/17 10:04:45;;;;;;;11.45;7.50;;;;;;;;;;5037232;28;20029;-81
2021/12/17 10:07:24;;;;;;;11.40;7.60;;;;;;;;;;5037724;28;20025;-81
2021/12/17 10:09:52;;;;;;;12.20;7.53;;;;;;;;;;5020895;28;20033;-82
2021/12/17 10:12:22;;;;;;;13.05;7.30;;;;;;;;;;5021541;28;20048;-80
2021/12/17 10:15:20;;;;;;;11.90;7.53;;;;;;;;;;5037511;28;20350;-81
2021/12/17 10:18:00;;;;;;;10.88;6.38;;;;;;;;;;5030925;28;20050;-81
2021/12/17 10:20:26;;;;;;;11.75;6.60;;;;;;;;;;5014432;28;20069;-81
2021/12/17 10:23:11;;;;;;;10.23;5.93;;;;;;;;;;5014739;28;20069;-81
2021/12/17 10:25:41;;;;;;;12.40;7.07;;;;;;;;;;5014727;28;20030;-81
2021/12/17 10:28:07;;;;;;;11.25;6.90;;;;;;;;;;5020141;28;20045;-81
2021/12/17 10:30:35;;;;;;;10.30;6.47;;;;;;;;;;5034335;28;20495;-80
2021/12/17 10:33:03;;;;;;;11.50;7.07;;;;;;;;;;5022869;28;20155;-81
2021/12/17 10:35:31;;;;;;;11.38;6.93;;;;;;;;;;4998563;28;20036;-82
2021/12/17 10:38:00;;;;;;;12.02;7.13;;;;;;;;;;5001664;28;20021;-81
2021/12/17 10:40:31;;;;;;;11.55;6.68;;;;;;;;;;5034630;28;20053;-81
2021/12/17 10:43:05;;;;;;;12.93;7.50;;;;;;;;;;5031290;28;20097;-81
2021/12/17 10:45:34;;;;;;;11.52;6.80;;;;;;;;;;5028077;28;20114;-81
2021/12/17 10:51:14;;;;;;;13.85;7.25;;;;;;;;;;5032173;28;20055;-81
2021/12/17 10:53:54;;;;;;;10.88;7.00;;;;;;;;;;5043150;28;20105;-80
2021/12/17 10:56:24;;;;;;;10.95;7.47;;;;;;;;;;5017689;28;20097;-81
2021/12/17 10:58:56;;;;;;;12.35;7.53;;;;;;;;;;5026928;28;20071;-82
2021/12/17 11:01:28;;;;;;;12.43;7.57;;;;;;;;;;5035401;28;20100;-82
2021/12/17 11:04:03;;;;;;;11.23;7.25;;;;;;;;;;5036112;28;20788;-79
2021/12/17 11:06:41;;;;;;;13.05;6.65;;;;;;;;;;5036307;28;20525;-80
2021/12/17 11:09:07;;;;;;;11.27;6.65;;;;;;;;;;5035399;28;20029;-80
2021/12/17 11:11:33;;;;;;;11.23;7.13;;;;;;;;;;5019521;28;20388;-80
2021/12/17 11:14:00;;;;;;;10.07;6.50;;;;;;;;;;5031062;28;20033;-81
2021/12/17 11:16:28;;;;;;;13.88;7.45;;;;;;;;;;5026171;28;20120;-80
2021/12/17 11:18:54;;;;;;;11.00;7.72;;;;;;;;;;5015933;28;20029;-81
2021/12/17 11:21:21;;;;;;;11.57;7.20;;;;;;;;;;5015610;28;20028;-80
2021/12/17 11:23:48;;;;;;;15.15;7.45;;;;;;;;;;5030912;28;20193;-81
2021/12/17 11:26:14;;;;;;;10.18;7.00;;;;;;;;;;5026926;28;20018;-79
2021/12/17 11:28:40;;;;;;;11.77;7.40;;;;;;;;;;5029775;28;20010;-78
2021/12/17 11:31:06;;;;;;;10.25;6.90;;;;;;;;;;5022825;28;20053;-79
2021/12/17 11:33:32;;;;;;;9.88;6.85;;;;;;;;;;5027610;28;20033;-82
2021/12/17 11:35:58;;;;;;;10.60;6.50;;;;;;;;;;5036527;28;20077;-81
2021/12/17 11:38:44;;;;;;;10.40;7.20;;;;;;;;;;5035117;28;20026;-81
2021/12/17 11:41:16;;;;;;;27.33;8.98;;;;;;;;;;5024914;28;20484;-81
2021/12/17 11:43:50;;;;;;;13.23;8.27;;;;;;;;;;5024996;28;20033;-82
2021/12/17 11:46:16;;;;;;;13.75;8.05;;;;;;;;;;5034815;28;20033;-82
2021/12/17 11:49:12;;;;;;;10.95;6.65;;;;;;;;;;5028762;28;20093;-81
2021/12/17 11:51:38;;;;;;;9.68;7.15;;;;;;;;;;5012532;28;20045;-83
2021/12/17 11:54:08;;;;;;;11.25;6.68;;;;;;;;;;5031402;28;20037;-82
2021/12/17 11:56:46;;;;;;;9.27;6.72;;;;;;;;;;5015562;28;20046;-81
2021/12/17 11:59:23;;;;;;;13.20;7.97;;;;;;;;;;5030359;28;20049;-81
2021/12/17 12:02:01;;;;;;;12.27;6.88;;;;;;;;;;5026469;28;20091;-82
2021/12/17 12:04:33;;;;;;;12.52;6.88;;;;;;;;;;5017824;28;20546;-81
2021/12/17 12:07:09;;;;;;;11.83;7.03;;;;;;;;;;5008759;28;20056;-81
2021/12/17 12:09:59;;;;;;;13.20;7.68;;;;;;;;;;5030982;28;20046;-83
2021/12/17 12:12:27;;;;;;;14.00;8.02;;;;;;;;;;4999315;28;20033;-81
2021/12/17 12:14:53;;;;;;;11.88;7.35;;;;;;;;;;5026242;28;20045;-82
2021/12/17 12:17:37;;;;;;;17.25;9.45;;;;;;;;;;5023874;28;20018;-81
2021/12/17 12:20:03;;;;;;;12.07;7.55;;;;;;;;;;4998173;28;20049;-81
2021/12/17 12:22:31;;;;;;;13.15;7.47;;;;;;;;;;4997584;28;20147;-81
2021/12/17 12:25:16;;;;;;;15.77;9.70;;;;;;;;;;5000293;28;20436;-82
2021/12/17 12:27:46;;;;;;;12.88;7.28;;;;;;;;;;5019998;28;20045;-82
2021/12/17 12:30:13;;;;;;;14.82;7.47;;;;;;;;;;5021446;28;20025;-82
2021/12/17 12:32:59;;;;;;;13.65;8.40;;;;;;;;;;5032401;28;20017;-82
2021/12/17 12:35:25;;;;;;;12.05;8.30;;;;;;;;;;5018336;28;20033;-81
2021/12/17 12:38:10;;;;;;;12.82;7.55;;;;;;;;;;5024169;28;20057;-82
2021/12/17 12:40:43;;;;;;;11.57;6.80;;;;;;;;;;5033069;28;20042;-81
2021/12/17 12:43:24;;;;;;;11.85;7.25;;;;;;;;;;5031579;28;20075;-85
2021/12/17 12:45:50;;;;;;;12.52;7.38;;;;;;;;;;5033441;28;20033;-81
2021/12/17 12:48:29;;;;;;;11.77;8.43;;;;;;;;;;5032616;28;20091;-82
2021/12/17 12:51:19;;;;;;;16.05;8.75;;;;;;;;;;5018556;28;20030;-82
2021/12/17 12:53:46;;;;;;;10.40;7.05;;;;;;;;;;5027575;28;20033;-83
2021/12/17 12:56:19;;;;;;;14.98;8.48;;;;;;;;;;5020176;28;20022;-81
2021/12/17 12:58:48;;;;;;;10.68;6.82;;;;;;;;;;5030676;28;20626;-84
2021/12/17 13:01:17;;;;;;;11.55;7.32;;;;;;;;;;5033907;28;20136;-83
2021/12/17 13:03:44;;;;;;;11.68;7.07;;;;;;;;;;5028841;28;20076;-83
2021/12/17 13:06:16;;;;;;;12.98;7.20;;;;;;;;;;5027804;28;20030;-81
2021/12/17 13:08:42;;;;;;;12.68;7.32;;;;;;;;;;5026596;28;20057;-83
2021/12/17 13:11:08;;;;;;;10.85;7.00;;;;;;;;;;5024876;28;20033;-82
2021/12/17 13:13:42;;;;;;;10.82;7.00;;;;;;;;;;5036925;28;20025;-81
2021/12/17 13:24:13;;;;;;;11.40;7.20;;;;;;;;;;5020499;28;20048;-81
2021/12/17 13:30:11;;;;;;;10.57;7.07;;;;;;;;;;5013783;28;20470;-83
2021/12/17 13:32:43;;;;;;;11.68;6.97;;;;;;;;;;5030072;28;20031;-81
2021/12/17 13:35:15;;;;;;;12.20;7.03;;;;;;;;;;5033976;28;20028;-82
2021/12/17 13:37:41;;;;;;;11.73;7.53;;;;;;;;;;5025304;28;20026;-82
2021/12/17 13:40:09;;;;;;;10.95;6.82;;;;;;;;;;5028635;28;20088;-82
2021/12/17 13:42:35;;;;;;;11.88;7.30;;;;;;;;;;5026465;28;20467;-82
2021/12/17 13:45:02;;;;;;;11.70;7.10;;;;;;;;;;5035535;28;20044;-81
2021/12/17 13:47:32;;;;;;;12.32;7.35;;;;;;;;;;5021435;28;20033;-82
2021/12/17 13:50:01;;;;;;;11.23;7.53;;;;;;;;;;5035766;28;20026;-82
2021/12/17 13:52:29;;;;;;;13.15;7.07;;;;;;;;;;5036605;28;20030;-80
2021/12/17 13:54:56;;;;;;;11.60;7.03;;;;;;;;;;5035508;28;20131;-80
2021/12/17 13:57:23;;;;;;;10.13;7.25;;;;;;;;;;5022019;28;20048;-81
2021/12/17 13:59:50;;;;;;;10.55;6.57;;;;;;;;;;5020714;28;20492;-81
2021/12/17 14:02:20;;;;;;;13.65;7.55;;;;;;;;;;5016839;28;20117;-80
2021/12/17 14:04:58;;;;;;;12.73;7.35;;;;;;;;;;5021766;28;20539;-83
2021/12/17 14:07:29;;;;;;;11.90;7.45;;;;;;;;;;5023324;28;20038;-81
2021/12/17 14:10:00;;;;;;;11.85;8.15;;;;;;;;;;5028563;28;20025;-82
2021/12/17 14:12:32;;;;;;;12.10;7.72;;;;;;;;;;5038184;28;20425;-81
2021/12/17 14:14:59;;;;;;;14.00;8.70;;;;;;;;;;5018893;28;20010;-82
2021/12/17 14:17:25;;;;;;;14.07;8.70;;;;;;;;;;5021418;28;20276;-81
2021/12/17 14:19:52;;;;;;;13.43;7.90;;;;;;;;;;5018003;28;20025;-82
2021/12/17 14:22:27;;;;;;;10.30;6.95;;;;;;;;;;5016280;28;20030;-81
2021/12/17 14:24:54;;;;;;;12.32;6.57;;;;;;;;;;5020957;28;20104;-81
2021/12/17 14:27:20;;;;;;;11.25;7.18;;;;;;;;;;5016401;28;20039;-80
2021/12/17 14:29:46;;;;;;;12.35;7.65;;;;;;;;;;5015634;28;20089;-81
2021/12/17 14:32:16;;;;;;;12.07;6.90;;;;;;;;;;5015707;28;20038;-82
2021/12/17 14:34:42;;;;;;;13.68;7.70;;;;;;;;;;5015243;28;20108;-81
2021/12/17 14:37:08;;;;;;;14.07;7.90;;;;;;;;;;5022291;28;20025;-81
2021/12/17 14:39:37;;;;;;;11.77;7.25;;;;;;;;;;5017365;28;20022;-81
2021/12/17 14:42:05;;;;;;;16.38;7.85;;;;;;;;;;5022463;28;20434;-82
2021/12/17 14:44:55;;;;;;;10.10;7.07;;;;;;;;;;5036607;28;20105;-83
2021/12/17 15:01:13;;;;;;;11.35;7.30;;;;;;;;;;5016693;28;20045;-82
2021/12/17 15:06:06;;;;;;;14.20;7.97;;;;;;;;;;5024195;28;20044;-82
2021/12/17 15:08:32;;;;;;;14.50;7.75;;;;;;;;;;5020738;28;20033;-83
2021/12/17 15:10:59;;;;;;;12.90;8.13;;;;;;;;;;5020942;28;20136;-82
2021/12/17 15:13:25;;;;;;;13.48;7.68;;;;;;;;;;5015087;28;20036;-82
2021/12/17 15:15:52;;;;;;;14.70;8.50;;;;;;;;;;5016845;28;20022;-82
2021/12/17 15:18:19;;;;;;;12.93;8.05;;;;;;;;;;5021641;28;20403;-82
2021/12/17 15:20:50;;;;;;;12.88;7.88;;;;;;;;;;5027345;28;20030;-82
2021/12/17 15:23:17;;;;;;;16.60;9.65;;;;;;;;;;5016155;28;20034;-82
2021/12/17 15:25:43;;;;;;;16.15;8.70;;;;;;;;;;5022186;28;20033;-80
2021/12/17 15:28:11;;;;;;;13.27;7.97;;;;;;;;;;5030860;28;20037;-81
2021/12/17 15:30:44;;;;;;;12.82;8.57;;;;;;;;;;5023888;28;20029;-81
2021/12/17 15:33:10;;;;;;;15.20;8.50;;;;;;;;;;5030904;28;20085;-81
2021/12/17 15:35:37;;;;;;;14.75;8.68;;;;;;;;;;5021806;28;20387;-82
2021/12/17 15:38:07;;;;;;;16.63;9.18;;;;;;;;;;5036445;28;20485;-82
2021/12/17 15:40:34;;;;;;;13.50;8.48;;;;;;;;;;5035834;28;20426;-82
2021/12/17 15:43:02;;;;;;;14.60;8.60;;;;;;;;;;5033601;28;20075;-81
2021/12/17 15:45:29;;;;;;;16.58;7.45;;;;;;;;;;5019566;28;20034;-81
2021/12/17 15:47:55;;;;;;;15.43;7.22;;;;;;;;;;5021281;28;20044;-82
2021/12/17 15:50:21;;;;;;;10.93;6.97;;;;;;;;;;5033667;28;20121;-82
2021/12/17 15:52:48;;;;;;;11.70;7.10;;;;;;;;;;5036147;28;20036;-81
2021/12/17 15:55:15;;;;;;;13.35;7.10;;;;;;;;;;5017274;28;20041;-81
2021/12/17 15:57:41;;;;;;;12.75;6.82;;;;;;;;;;5034105;28;20037;-82
2021/12/17 16:00:07;;;;;;;10.75;6.57;;;;;;;;;;5037581;28;20029;-82
2021/12/17 16:02:33;;;;;;;13.32;7.07;;;;;;;;;;5035912;28;20045;-81
2021/12/17 16:05:00;;;;;;;11.88;6.47;;;;;;;;;;5019747;28;20040;-81
2021/12/17 16:07:26;;;;;;;12.38;7.00;;;;;;;;;;5028752;28;20347;-81
2021/12/17 16:23:22;;;;;;;13.77;7.97;;;;;;;;;;5027706;28;20049;-81
2021/12/17 16:28:52;;;;;;;11.68;6.53;;;;;;;;;;5021878;28;20095;-81
2021/12/17 16:31:23;;;;;;;11.65;7.40;;;;;;;;;;5019748;28;20033;-80
2021/12/17 16:33:58;;;;;;;12.20;7.00;;;;;;;;;;5018208;28;20018;-81
2021/12/17 16:36:24;;;;;;;11.60;7.10;;;;;;;;;;5019130;28;20045;-81
2021/12/17 16:38:51;;;;;;;15.65;7.22;;;;;;;;;;5023252;28;20018;-81
2021/12/17 16:41:18;;;;;;;12.88;7.70;;;;;;;;;;5037975;28;20049;-81
2021/12/17 16:43:45;;;;;;;13.75;7.38;;;;;;;;;;5026322;28;20030;-81
2021/12/17 16:48:43;;;;;;;;;;;;;;;;;;5023738;28;20056;-81
2021/12/17 16:51:11;;;;;;;13.52;7.93;;;;;;;;;;5037492;28;20339;-81
2021/12/17 16:53:37;;;;;;;13.27;8.27;;;;;;;;;;5030070;28;20033;-82
2021/12/17 16:56:03;;;;;;;15.73;9.13;;;;;;;;;;5039081;28;20033;-82
2021/12/17 16:58:29;;;;;;;12.63;8.10;;;;;;;;;;5038883;28;20483;-81
2021/12/17 17:00:56;;;;;;;15.80;8.45;;;;;;;;;;5036998;28;20053;-81
2021/12/17 17:03:22;;;;;;;16.30;7.85;;;;;;;;;;5032821;28;20052;-82
2021/12/17 17:05:48;;;;;;;15.25;8.57;;;;;;;;;;5029781;28;20026;-82
2021/12/17 17:08:15;;;;;;;15.43;8.07;;;;;;;;;;5021304;28;20030;-82
2021/12/17 17:10:41;;;;;;;12.70;8.30;;;;;;;;;;5024949;28;20472;-81
2021/12/17 17:13:07;;;;;;;13.75;7.47;;;;;;;;;;5012244;28;20472;-82
2021/12/17 17:15:34;;;;;;;11.82;7.10;;;;;;;;;;5021514;28;20029;-82
2021/12/17 17:18:07;;;;;;;15.32;7.57;;;;;;;;;;5037032;28;20020;-82
2021/12/17 17:20:34;;;;;;;14.02;8.23;;;;;;;;;;5038850;28;20029;-82
2021/12/17 17:23:01;;;;;;;14.90;7.78;;;;;;;;;;5030412;28;20029;-81
2021/12/17 17:25:27;;;;;;;16.73;8.98;;;;;;;;;;5017900;28;20024;-81
2021/12/17 17:27:54;;;;;;;15.23;8.55;;;;;;;;;;5037719;28;20030;-82
2021/12/17 17:30:20;;;;;;;14.07;8.75;;;;;;;;;;5037837;28;20543;-81
2021/12/17 17:32:47;;;;;;;11.30;8.38;;;;;;;;;;5030205;28;20310;-82
2021/12/17 17:35:14;;;;;;;13.95;7.88;;;;;;;;;;5016282;28;20018;-82
2021/12/17 17:37:40;;;;;;;12.60;8.20;;;;;;;;;;5037338;28;20013;-82
2021/12/17 17:40:07;;;;;;;14.23;7.75;;;;;;;;;;5037768;28;20053;-81
2021/12/17 17:42:33;;;;;;;13.75;7.93;;;;;;;;;;5036941;28;20108;-81
2021/12/17 17:44:59;;;;;;;12.02;7.43;;;;;;;;;;5036367;28;20734;-81
2021/12/17 17:47:25;;;;;;;16.77;9.35;;;;;;;;;;5026795;28;20038;-82
2021/12/17 17:49:51;;;;;;;13.70;8.60;;;;;;;;;;5019378;28;20338;-81
2021/12/17 17:52:18;;;;;;;13.98;8.23;;;;;;;;;;5022289;28;20388;-81
2021/12/17 17:54:44;;;;;;;16.45;8.02;;;;;;;;;;5037219;28;20076;-81
2021/12/17 17:57:11;;;;;;;13.05;7.65;;;;;;;;;;5037279;28;20683;-81
2021/12/17 17:59:39;;;;;;;13.45;7.07;;;;;;;;;;5036314;28;20655;-81
2021/12/17 18:02:05;;;;;;;13.65;7.85;;;;;;;;;;5035211;28;20048;-82
2021/12/17 18:04:31;;;;;;;12.35;7.85;;;;;;;;;;5032341;28;20037;-81
2021/12/17 18:06:57;;;;;;;12.40;6.60;;;;;;;;;;5037518;28;20033;-81
2021/12/17 18:09:23;;;;;;;12.40;6.53;;;;;;;;;;5028090;28;20120;-81
2021/12/17 18:11:50;;;;;;;13.18;7.07;;;;;;;;;;5017307;28;20462;-81
2021/12/17 18:14:17;;;;;;;12.68;6.88;;;;;;;;;;5018930;28;20020;-80
2021/12/17 18:16:43;;;;;;;13.63;6.43;;;;;;;;;;5015952;28;20025;-81
2021/12/17 18:19:09;;;;;;;11.57;6.28;;;;;;;;;;5021185;28;20412;-81